sensor_id;sensor_type;location;lat;lon;timestamp;pressure;altitude;pressure_sealevel;temperature;humidity
70027;BME280;57506;50.092;15.804;2023-03-16T00:02:04;99412.25;;;-3.97;100.00
70027;BME280;57506;50.092;15.804;2023-03-16T00:04:30;99418.19;;;-3.94;100.00
70027;BME280;57506;50.092;15.804;2023-03-16T00:06:56;99408.03;;;-4.00;100.00
70027;BME280;57506;50.092;15.804;2023-03-16T00:09:22;99421.16;;;-3.85;100.00
70027;BME280;57506;50.092;15.804;2023-03-16T00:12:01;99412.22;;;-3.83;100.00
70027;BME280;57506;50.092;15.804;2023-03-16T00:14:28;99418.03;;;-3.78;100.00
70027;BME280;57506;50.092;15.804;2023-03-16T00:16:54;99416.06;;;-3.74;100.00
70027;BME280;57506;50.092;15.804;2023-03-16T00:19:20;99429.63;;;-3.80;100.00
70027;BME280;57506;50.092;15.804;2023-03-16T00:21:49;99421.56;;;-3.92;100.00
70027;BME280;57506;50.092;15.804;2023-03-16T00:24:15;99419.78;;;-4.05;100.00
70027;BME280;57506;50.092;15.804;2023-03-16T00:26:42;99422.88;;;-3.99;100.00
70027;BME280;57506;50.092;15.804;2023-03-16T00:29:08;99424.59;;;-4.12;100.00
70027;BME280;57506;50.092;15.804;2023-03-16T00:31:34;99427.50;;;-4.16;100.00
70027;BME280;57506;50.092;15.804;2023-03-16T00:34:00;99439.63;;;-4.14;100.00
70027;BME280;57506;50.092;15.804;2023-03-16T00:36:27;99417.25;;;-4.21;100.00
70027;BME280;57506;50.092;15.804;2023-03-16T00:38:52;99430.53;;;-4.08;100.00
70027;BME280;57506;50.092;15.804;2023-03-16T00:41:18;99431.28;;;-4.06;100.00
70027;BME280;57506;50.092;15.804;2023-03-16T00:43:44;99428.53;;;-3.91;100.00
70027;BME280;57506;50.092;15.804;2023-03-16T00:46:15;99433.97;;;-3.94;100.00
70027;BME280;57506;50.092;15.804;2023-03-16T00:48:43;99445.66;;;-4.12;100.00
70027;BME280;57506;50.092;15.804;2023-03-16T00:51:13;99447.25;;;-4.38;100.00
70027;BME280;57506;50.092;15.804;2023-03-16T00:53:41;99437.78;;;-4.54;100.00
70027;BME280;57506;50.092;15.804;2023-03-16T00:56:08;99448.56;;;-4.45;100.00
70027;BME280;57506;50.092;15.804;2023-03-16T00:58:35;99449.88;;;-4.38;100.00
70027;BME280;57506;50.092;15.804;2023-03-16T01:03:27;99449.44;;;-4.44;100.00
70027;BME280;57506;50.092;15.804;2023-03-16T01:05:53;99449.25;;;-4.41;100.00
70027;BME280;57506;50.092;15.804;2023-03-16T01:08:24;99448.84;;;-4.49;100.00
70027;BME280;57506;50.092;15.804;2023-03-16T01:10:49;99453.00;;;-4.45;100.00
70027;BME280;57506;50.092;15.804;2023-03-16T01:13:15;99443.50;;;-4.48;100.00
70027;BME280;57506;50.092;15.804;2023-03-16T01:15:40;99455.63;;;-4.31;100.00
70027;BME280;57506;50.092;15.804;2023-03-16T01:18:06;99436.09;;;-4.27;100.00
70027;BME280;57506;50.092;15.804;2023-03-16T01:20:31;99448.97;;;-4.22;100.00
70027;BME280;57506;50.092;15.804;2023-03-16T01:22:57;99449.50;;;-4.32;100.00
70027;BME280;57506;50.092;15.804;2023-03-16T01:25:23;99446.69;;;-4.43;100.00
70027;BME280;57506;50.092;15.804;2023-03-16T01:27:48;99458.16;;;-4.58;100.00
70027;BME280;57506;50.092;15.804;2023-03-16T01:30:14;99465.72;;;-4.68;100.00
70027;BME280;57506;50.092;15.804;2023-03-16T01:32:40;99458.41;;;-4.63;100.00
70027;BME280;57506;50.092;15.804;2023-03-16T01:35:06;99453.44;;;-4.67;100.00
70027;BME280;57506;50.092;15.804;2023-03-16T01:37:32;99461.72;;;-4.59;100.00
70027;BME280;57506;50.092;15.804;2023-03-16T01:39:57;99450.81;;;-4.67;100.00
70027;BME280;57506;50.092;15.804;2023-03-16T01:42:23;99454.34;;;-4.82;100.00
70027;BME280;57506;50.092;15.804;2023-03-16T01:44:57;99472.91;;;-4.85;100.00
70027;BME280;57506;50.092;15.804;2023-03-16T01:47:25;99471.59;;;-4.93;100.00
70027;BME280;57506;50.092;15.804;2023-03-16T01:49:54;99469.41;;;-5.00;100.00
70027;BME280;57506;50.092;15.804;2023-03-16T01:52:26;99470.63;;;-5.06;100.00
70027;BME280;57506;50.092;15.804;2023-03-16T01:54:59;99472.13;;;-5.02;100.00
70027;BME280;57506;50.092;15.804;2023-03-16T01:57:29;99476.78;;;-4.91;100.00
70027;BME280;57506;50.092;15.804;2023-03-16T02:00:10;99481.84;;;-4.88;100.00
70027;BME280;57506;50.092;15.804;2023-03-16T02:02:44;99474.16;;;-4.91;100.00
70027;BME280;57506;50.092;15.804;2023-03-16T02:05:11;99478.00;;;-4.82;100.00
70027;BME280;57506;50.092;15.804;2023-03-16T02:07:49;99475.25;;;-4.95;100.00
70027;BME280;57506;50.092;15.804;2023-03-16T02:10:17;99471.19;;;-5.01;100.00
70027;BME280;57506;50.092;15.804;2023-03-16T02:12:43;99473.19;;;-5.04;100.00
70027;BME280;57506;50.092;15.804;2023-03-16T02:15:10;99486.03;;;-5.00;100.00
70027;BME280;57506;50.092;15.804;2023-03-16T02:17:36;99480.84;;;-5.01;100.00
70027;BME280;57506;50.092;15.804;2023-03-16T02:20:23;99488.66;;;-5.00;100.00
70027;BME280;57506;50.092;15.804;2023-03-16T02:22:53;99472.03;;;-5.00;100.00
70027;BME280;57506;50.092;15.804;2023-03-16T02:25:22;99483.63;;;-4.88;100.00
70027;BME280;57506;50.092;15.804;2023-03-16T02:27:56;99491.63;;;-4.90;100.00
70027;BME280;57506;50.092;15.804;2023-03-16T02:30:26;99484.00;;;-4.95;100.00
70027;BME280;57506;50.092;15.804;2023-03-16T02:32:51;99493.59;;;-5.09;100.00
70027;BME280;57506;50.092;15.804;2023-03-16T02:35:18;99496.44;;;-4.98;100.00
70027;BME280;57506;50.092;15.804;2023-03-16T02:37:44;99491.06;;;-5.11;100.00
70027;BME280;57506;50.092;15.804;2023-03-16T02:40:25;99491.50;;;-5.18;100.00
70027;BME280;57506;50.092;15.804;2023-03-16T02:45:52;99507.63;;;-5.24;100.00
70027;BME280;57506;50.092;15.804;2023-03-16T02:48:27;99507.88;;;-5.29;100.00
70027;BME280;57506;50.092;15.804;2023-03-16T02:50:56;99504.22;;;-5.26;100.00
70027;BME280;57506;50.092;15.804;2023-03-16T02:53:23;99514.31;;;-5.35;100.00
70027;BME280;57506;50.092;15.804;2023-03-16T02:55:49;99511.19;;;-5.41;100.00
70027;BME280;57506;50.092;15.804;2023-03-16T02:58:15;99511.19;;;-5.41;100.00
70027;BME280;57506;50.092;15.804;2023-03-16T03:00:41;99501.94;;;-5.33;100.00
70027;BME280;57506;50.092;15.804;2023-03-16T03:03:07;99517.44;;;-5.28;100.00
70027;BME280;57506;50.092;15.804;2023-03-16T03:05:34;99523.56;;;-5.28;100.00
70027;BME280;57506;50.092;15.804;2023-03-16T03:08:00;99524.50;;;-5.44;100.00
70027;BME280;57506;50.092;15.804;2023-03-16T03:10:26;99525.34;;;-5.44;100.00
70027;BME280;57506;50.092;15.804;2023-03-16T03:12:51;99521.47;;;-5.37;100.00
70027;BME280;57506;50.092;15.804;2023-03-16T03:15:17;99531.94;;;-5.21;100.00
70027;BME280;57506;50.092;15.804;2023-03-16T03:17:44;99535.66;;;-5.25;100.00
70027;BME280;57506;50.092;15.804;2023-03-16T03:20:11;99533.97;;;-5.26;100.00
70027;BME280;57506;50.092;15.804;2023-03-16T03:22:41;99528.75;;;-5.42;100.00
70027;BME280;57506;50.092;15.804;2023-03-16T03:25:10;99538.41;;;-5.58;100.00
70027;BME280;57506;50.092;15.804;2023-03-16T03:27:36;99536.25;;;-5.51;100.00
70027;BME280;57506;50.092;15.804;2023-03-16T03:30:02;99537.88;;;-5.49;100.00
70027;BME280;57506;50.092;15.804;2023-03-16T03:32:28;99552.97;;;-5.52;100.00
70027;BME280;57506;50.092;15.804;2023-03-16T03:34:53;99542.63;;;-5.55;100.00
70027;BME280;57506;50.092;15.804;2023-03-16T03:37:19;99547.28;;;-5.60;100.00
70027;BME280;57506;50.092;15.804;2023-03-16T03:39:44;99551.38;;;-5.55;100.00
70027;BME280;57506;50.092;15.804;2023-03-16T03:42:10;99554.31;;;-5.61;100.00
70027;BME280;57506;50.092;15.804;2023-03-16T03:44:36;99554.47;;;-5.64;100.00
70027;BME280;57506;50.092;15.804;2023-03-16T03:47:02;99560.94;;;-5.54;100.00
70027;BME280;57506;50.092;15.804;2023-03-16T03:49:28;99550.16;;;-5.49;100.00
70027;BME280;57506;50.092;15.804;2023-03-16T03:51:54;99570.50;;;-5.21;100.00
70027;BME280;57506;50.092;15.804;2023-03-16T03:54:20;99563.69;;;-4.94;100.00
70027;BME280;57506;50.092;15.804;2023-03-16T03:56:46;99555.09;;;-4.82;100.00
70027;BME280;57506;50.092;15.804;2023-03-16T03:59:11;99558.34;;;-4.63;100.00
70027;BME280;57506;50.092;15.804;2023-03-16T04:01:37;99564.47;;;-4.48;100.00
70027;BME280;57506;50.092;15.804;2023-03-16T04:04:02;99555.75;;;-4.48;100.00
70027;BME280;57506;50.092;15.804;2023-03-16T04:06:28;99564.03;;;-4.54;100.00
70027;BME280;57506;50.092;15.804;2023-03-16T04:08:53;99569.28;;;-4.54;100.00
70027;BME280;57506;50.092;15.804;2023-03-16T04:11:20;99565.28;;;-4.62;100.00
70027;BME280;57506;50.092;15.804;2023-03-16T04:13:46;99569.22;;;-4.69;100.00
70027;BME280;57506;50.092;15.804;2023-03-16T04:16:11;99577.56;;;-4.76;100.00
70027;BME280;57506;50.092;15.804;2023-03-16T04:18:40;99579.50;;;-4.80;100.00
70027;BME280;57506;50.092;15.804;2023-03-16T04:21:07;99577.16;;;-4.54;100.00
70027;BME280;57506;50.092;15.804;2023-03-16T04:23:37;99584.88;;;-4.37;100.00
70027;BME280;57506;50.092;15.804;2023-03-16T04:26:02;99582.31;;;-4.23;100.00
70027;BME280;57506;50.092;15.804;2023-03-16T04:28:30;99580.31;;;-4.19;100.00
70027;BME280;57506;50.092;15.804;2023-03-16T04:31:07;99579.75;;;-4.25;100.00
70027;BME280;57506;50.092;15.804;2023-03-16T04:33:34;99592.34;;;-4.15;100.00
70027;BME280;57506;50.092;15.804;2023-03-16T04:36:00;99584.47;;;-4.15;100.00
70027;BME280;57506;50.092;15.804;2023-03-16T04:38:27;99590.31;;;-4.10;100.00
70027;BME280;57506;50.092;15.804;2023-03-16T04:40:53;99589.06;;;-4.05;100.00
70027;BME280;57506;50.092;15.804;2023-03-16T04:43:19;99585.50;;;-4.04;100.00
70027;BME280;57506;50.092;15.804;2023-03-16T04:45:45;99584.97;;;-3.95;100.00
70027;BME280;57506;50.092;15.804;2023-03-16T04:48:10;99588.91;;;-3.88;100.00
70027;BME280;57506;50.092;15.804;2023-03-16T04:50:36;99589.56;;;-3.84;100.00
70027;BME280;57506;50.092;15.804;2023-03-16T04:53:02;99598.31;;;-3.83;100.00
70027;BME280;57506;50.092;15.804;2023-03-16T04:55:29;99604.59;;;-3.86;100.00
70027;BME280;57506;50.092;15.804;2023-03-16T04:57:55;99598.88;;;-3.93;100.00
70027;BME280;57506;50.092;15.804;2023-03-16T05:00:21;99600.75;;;-3.95;100.00
70027;BME280;57506;50.092;15.804;2023-03-16T05:02:48;99614.50;;;-3.90;100.00
70027;BME280;57506;50.092;15.804;2023-03-16T05:05:14;99612.97;;;-3.94;100.00
70027;BME280;57506;50.092;15.804;2023-03-16T05:07:41;99615.53;;;-3.92;100.00
70027;BME280;57506;50.092;15.804;2023-03-16T05:10:11;99611.28;;;-3.95;100.00
70027;BME280;57506;50.092;15.804;2023-03-16T05:12:37;99616.47;;;-3.93;100.00
70027;BME280;57506;50.092;15.804;2023-03-16T05:15:04;99609.59;;;-3.96;100.00
70027;BME280;57506;50.092;15.804;2023-03-16T05:17:30;99625.84;;;-3.89;100.00
70027;BME280;57506;50.092;15.804;2023-03-16T05:19:56;99615.97;;;-3.85;100.00
70027;BME280;57506;50.092;15.804;2023-03-16T05:22:21;99610.53;;;-3.82;100.00
70027;BME280;57506;50.092;15.804;2023-03-16T05:24:47;99623.16;;;-3.73;100.00
70027;BME280;57506;50.092;15.804;2023-03-16T05:27:13;99622.19;;;-3.72;100.00
70027;BME280;57506;50.092;15.804;2023-03-16T05:29:38;99621.25;;;-3.71;100.00
70027;BME280;57506;50.092;15.804;2023-03-16T05:32:04;99615.81;;;-3.68;100.00
70027;BME280;57506;50.092;15.804;2023-03-16T05:34:31;99608.94;;;-3.71;100.00
70027;BME280;57506;50.092;15.804;2023-03-16T05:36:56;99616.00;;;-3.57;100.00
70027;BME280;57506;50.092;15.804;2023-03-16T05:39:22;99614.84;;;-3.53;100.00
70027;BME280;57506;50.092;15.804;2023-03-16T05:41:48;99621.63;;;-3.49;100.00
70027;BME280;57506;50.092;15.804;2023-03-16T05:44:14;99618.34;;;-3.53;100.00
70027;BME280;57506;50.092;15.804;2023-03-16T05:46:39;99621.28;;;-3.43;100.00
70027;BME280;57506;50.092;15.804;2023-03-16T05:49:05;99626.53;;;-3.43;100.00
70027;BME280;57506;50.092;15.804;2023-03-16T05:51:30;99635.19;;;-3.27;100.00
70027;BME280;57506;50.092;15.804;2023-03-16T05:53:56;99625.75;;;-3.17;100.00
70027;BME280;57506;50.092;15.804;2023-03-16T05:56:23;99632.44;;;-3.11;100.00
70027;BME280;57506;50.092;15.804;2023-03-16T05:58:51;99636.91;;;-2.99;100.00
70027;BME280;57506;50.092;15.804;2023-03-16T06:01:17;99627.97;;;-2.96;100.00
70027;BME280;57506;50.092;15.804;2023-03-16T06:03:45;99620.63;;;-3.05;100.00
70027;BME280;57506;50.092;15.804;2023-03-16T06:06:10;99617.97;;;-3.05;100.00
70027;BME280;57506;50.092;15.804;2023-03-16T06:08:36;99628.31;;;-2.88;100.00
70027;BME280;57506;50.092;15.804;2023-03-16T06:11:02;99631.13;;;-2.77;100.00
70027;BME280;57506;50.092;15.804;2023-03-16T06:13:28;99640.50;;;-2.73;100.00
70027;BME280;57506;50.092;15.804;2023-03-16T06:15:54;99640.25;;;-2.83;100.00
70027;BME280;57506;50.092;15.804;2023-03-16T06:18:19;99643.09;;;-2.86;100.00
70027;BME280;57506;50.092;15.804;2023-03-16T06:20:45;99640.50;;;-2.73;100.00
70027;BME280;57506;50.092;15.804;2023-03-16T06:23:11;99661.06;;;-2.51;100.00
70027;BME280;57506;50.092;15.804;2023-03-16T06:25:38;99648.72;;;-2.51;100.00
70027;BME280;57506;50.092;15.804;2023-03-16T06:28:04;99643.16;;;-2.46;100.00
70027;BME280;57506;50.092;15.804;2023-03-16T06:30:29;99645.28;;;-2.26;100.00
70027;BME280;57506;50.092;15.804;2023-03-16T06:32:55;99637.69;;;-2.30;100.00
70027;BME280;57506;50.092;15.804;2023-03-16T06:35:21;99645.06;;;-2.35;100.00
70027;BME280;57506;50.092;15.804;2023-03-16T06:37:47;99650.47;;;-2.24;100.00
70027;BME280;57506;50.092;15.804;2023-03-16T06:40:12;99641.00;;;-2.14;100.00
70027;BME280;57506;50.092;15.804;2023-03-16T06:42:38;99657.63;;;-1.99;100.00
70027;BME280;57506;50.092;15.804;2023-03-16T06:45:04;99654.69;;;-1.82;100.00
70027;BME280;57506;50.092;15.804;2023-03-16T06:47:30;99668.63;;;-1.80;100.00
70027;BME280;57506;50.092;15.804;2023-03-16T06:49:56;99663.22;;;-1.91;100.00
70027;BME280;57506;50.092;15.804;2023-03-16T06:52:22;99670.28;;;-1.92;100.00
70027;BME280;57506;50.092;15.804;2023-03-16T06:54:47;99667.25;;;-1.86;100.00
70027;BME280;57506;50.092;15.804;2023-03-16T06:57:13;99675.06;;;-1.71;100.00
70027;BME280;57506;50.092;15.804;2023-03-16T06:59:39;99684.78;;;-1.72;100.00
70027;BME280;57506;50.092;15.804;2023-03-16T07:02:04;99690.63;;;-1.67;100.00
70027;BME280;57506;50.092;15.804;2023-03-16T07:04:31;99686.38;;;-1.57;100.00
70027;BME280;57506;50.092;15.804;2023-03-16T07:06:58;99703.84;;;-1.67;100.00
70027;BME280;57506;50.092;15.804;2023-03-16T07:09:24;99692.09;;;-1.63;100.00
70027;BME280;57506;50.092;15.804;2023-03-16T07:11:49;99690.19;;;-1.61;100.00
70027;BME280;57506;50.092;15.804;2023-03-16T07:14:16;99687.47;;;-1.47;100.00
70027;BME280;57506;50.092;15.804;2023-03-16T07:16:43;99693.16;;;-1.40;100.00
70027;BME280;57506;50.092;15.804;2023-03-16T07:19:09;99679.53;;;-1.34;100.00
70027;BME280;57506;50.092;15.804;2023-03-16T07:21:35;99699.09;;;-1.49;100.00
70027;BME280;57506;50.092;15.804;2023-03-16T07:24:05;99697.69;;;-1.42;100.00
70027;BME280;57506;50.092;15.804;2023-03-16T07:26:31;99702.03;;;-1.41;100.00
70027;BME280;57506;50.092;15.804;2023-03-16T07:28:57;99693.16;;;-1.40;100.00
70027;BME280;57506;50.092;15.804;2023-03-16T07:31:23;99704.34;;;-1.24;100.00
70027;BME280;57506;50.092;15.804;2023-03-16T07:33:49;99705.19;;;-1.11;100.00
70027;BME280;57506;50.092;15.804;2023-03-16T07:36:15;99717.81;;;-1.14;100.00
70027;BME280;57506;50.092;15.804;2023-03-16T07:38:41;99720.09;;;-1.10;100.00
70027;BME280;57506;50.092;15.804;2023-03-16T07:41:06;99729.31;;;-1.28;100.00
70027;BME280;57506;50.092;15.804;2023-03-16T07:43:33;99715.13;;;-1.27;100.00
70027;BME280;57506;50.092;15.804;2023-03-16T07:45:59;99724.44;;;-1.21;100.00
70027;BME280;57506;50.092;15.804;2023-03-16T07:48:26;99725.50;;;-1.24;100.00
70027;BME280;57506;50.092;15.804;2023-03-16T07:50:51;99720.75;;;-1.19;100.00
70027;BME280;57506;50.092;15.804;2023-03-16T07:53:18;99722.75;;;-1.22;100.00
70027;BME280;57506;50.092;15.804;2023-03-16T07:55:45;99722.66;;;-1.21;100.00
70027;BME280;57506;50.092;15.804;2023-03-16T07:58:11;99714.84;;;-1.35;100.00
70027;BME280;57506;50.092;15.804;2023-03-16T08:00:37;99727.31;;;-1.24;100.00
70027;BME280;57506;50.092;15.804;2023-03-16T08:03:03;99732.47;;;-0.85;100.00
70027;BME280;57506;50.092;15.804;2023-03-16T08:05:28;99713.16;;;-0.74;100.00
70027;BME280;57506;50.092;15.804;2023-03-16T08:07:57;99720.75;;;-0.57;100.00
70027;BME280;57506;50.092;15.804;2023-03-16T08:10:23;99725.59;;;-0.51;100.00
70027;BME280;57506;50.092;15.804;2023-03-16T08:12:49;99740.38;;;-0.36;100.00
70027;BME280;57506;50.092;15.804;2023-03-16T08:15:15;99741.81;;;-0.31;100.00
70027;BME280;57506;50.092;15.804;2023-03-16T08:17:41;99752.69;;;-0.47;100.00
70027;BME280;57506;50.092;15.804;2023-03-16T08:20:07;99753.41;;;-0.32;100.00
70027;BME280;57506;50.092;15.804;2023-03-16T08:22:35;99756.09;;;-0.21;100.00
70027;BME280;57506;50.092;15.804;2023-03-16T08:25:02;99765.13;;;-0.24;100.00
70027;BME280;57506;50.092;15.804;2023-03-16T08:27:28;99766.97;;;-0.37;100.00
70027;BME280;57506;50.092;15.804;2023-03-16T08:29:54;99771.66;;;-0.17;100.00
70027;BME280;57506;50.092;15.804;2023-03-16T08:32:20;99785.03;;;-0.18;100.00
70027;BME280;57506;50.092;15.804;2023-03-16T08:34:45;99779.75;;;-0.31;100.00
70027;BME280;57506;50.092;15.804;2023-03-16T08:37:12;99772.72;;;-0.19;100.00
70027;BME280;57506;50.092;15.804;2023-03-16T08:39:41;99776.81;;;-0.15;100.00
70027;BME280;57506;50.092;15.804;2023-03-16T08:42:08;99775.75;;;-0.13;100.00
70027;BME280;57506;50.092;15.804;2023-03-16T08:44:34;99784.22;;;-0.08;100.00
70027;BME280;57506;50.092;15.804;2023-03-16T08:47:01;99794.13;;;-0.22;100.00
70027;BME280;57506;50.092;15.804;2023-03-16T08:49:28;99799.22;;;-0.19;100.00
70027;BME280;57506;50.092;15.804;2023-03-16T08:51:53;99813.06;;;-0.16;100.00
70027;BME280;57506;50.092;15.804;2023-03-16T08:54:19;99816.34;;;-0.12;100.00
70027;BME280;57506;50.092;15.804;2023-03-16T08:56:44;99815.06;;;-0.07;100.00
70027;BME280;57506;50.092;15.804;2023-03-16T08:59:10;99814.50;;;0.01;100.00
70027;BME280;57506;50.092;15.804;2023-03-16T09:01:36;99810.03;;;0.02;100.00
70027;BME280;57506;50.092;15.804;2023-03-16T09:04:01;99809.09;;;0.26;100.00
70027;BME280;57506;50.092;15.804;2023-03-16T09:06:27;99825.03;;;0.38;100.00
70027;BME280;57506;50.092;15.804;2023-03-16T09:08:53;99822.50;;;0.36;100.00
70027;BME280;57506;50.092;15.804;2023-03-16T09:11:20;99827.66;;;0.26;100.00
70027;BME280;57506;50.092;15.804;2023-03-16T09:13:46;99829.59;;;0.35;100.00
70027;BME280;57506;50.092;15.804;2023-03-16T09:16:13;99856.22;;;0.34;100.00
70027;BME280;57506;50.092;15.804;2023-03-16T09:18:40;99849.84;;;0.37;100.00
70027;BME280;57506;50.092;15.804;2023-03-16T09:21:08;99854.19;;;0.38;100.00
70027;BME280;57506;50.092;15.804;2023-03-16T09:23:35;99834.16;;;0.57;100.00
70027;BME280;57506;50.092;15.804;2023-03-16T09:26:03;99834.81;;;0.72;100.00
70027;BME280;57506;50.092;15.804;2023-03-16T09:28:31;99855.84;;;0.86;100.00
70027;BME280;57506;50.092;15.804;2023-03-16T09:30:57;99855.56;;;1.13;100.00
70027;BME280;57506;50.092;15.804;2023-03-16T09:33:24;99867.28;;;1.33;100.00
70027;BME280;57506;50.092;15.804;2023-03-16T09:35:50;99881.50;;;1.32;100.00
70027;BME280;57506;50.092;15.804;2023-03-16T09:38:17;99889.59;;;1.30;100.00
70027;BME280;57506;50.092;15.804;2023-03-16T09:40:44;99880.53;;;1.22;100.00
70027;BME280;57506;50.092;15.804;2023-03-16T09:48:23;99887.78;;;1.31;100.00
70027;BME280;57506;50.092;15.804;2023-03-16T09:50:50;99895.63;;;1.21;100.00
70027;BME280;57506;50.092;15.804;2023-03-16T09:53:23;99905.41;;;1.21;100.00
70027;BME280;57506;50.092;15.804;2023-03-16T09:56:06;99901.84;;;1.44;100.00
70027;BME280;57506;50.092;15.804;2023-03-16T09:58:34;99901.09;;;1.53;100.00
70027;BME280;57506;50.092;15.804;2023-03-16T10:04:36;99898.00;;;1.93;100.00
70027;BME280;57506;50.092;15.804;2023-03-16T10:07:20;99890.28;;;1.79;100.00
70027;BME280;57506;50.092;15.804;2023-03-16T10:12:49;99919.72;;;2.09;100.00
70027;BME280;57506;50.092;15.804;2023-03-16T10:15:39;99913.91;;;2.15;100.00
70027;BME280;57506;50.092;15.804;2023-03-16T10:18:11;99904.69;;;2.41;100.00
70027;BME280;57506;50.092;15.804;2023-03-16T10:20:39;99914.69;;;2.81;100.00
70027;BME280;57506;50.092;15.804;2023-03-16T10:23:24;99906.50;;;3.05;100.00
70027;BME280;57506;50.092;15.804;2023-03-16T10:25:54;99922.16;;;3.19;100.00
70027;BME280;57506;50.092;15.804;2023-03-16T10:28:27;99915.09;;;3.08;100.00
70027;BME280;57506;50.092;15.804;2023-03-16T10:30:58;99923.50;;;3.13;100.00
70027;BME280;57506;50.092;15.804;2023-03-16T10:33:32;99918.13;;;2.72;100.00
70027;BME280;57506;50.092;15.804;2023-03-16T10:36:26;99922.31;;;2.54;100.00
70027;BME280;57506;50.092;15.804;2023-03-16T10:39:14;99909.53;;;2.36;100.00
70027;BME280;57506;50.092;15.804;2023-03-16T10:41:46;99904.84;;;2.18;100.00
70027;BME280;57506;50.092;15.804;2023-03-16T10:44:16;99905.94;;;2.26;100.00
70027;BME280;57506;50.092;15.804;2023-03-16T10:46:48;99896.72;;;2.30;100.00
70027;BME280;57506;50.092;15.804;2023-03-16T10:51:55;99892.28;;;2.08;100.00
70027;BME280;57506;50.092;15.804;2023-03-16T10:54:30;99885.91;;;1.89;100.00
70027;BME280;57506;50.092;15.804;2023-03-16T10:56:57;99890.38;;;1.88;100.00
70027;BME280;57506;50.092;15.804;2023-03-16T10:59:32;99887.09;;;1.96;100.00
70027;BME280;57506;50.092;15.804;2023-03-16T11:02:14;99890.75;;;1.95;100.00
70027;BME280;57506;50.092;15.804;2023-03-16T11:04:40;99875.28;;;1.89;100.00
70027;BME280;57506;50.092;15.804;2023-03-16T11:07:07;99879.09;;;2.18;100.00
70027;BME280;57506;50.092;15.804;2023-03-16T11:09:39;99880.13;;;2.38;100.00
70027;BME280;57506;50.092;15.804;2023-03-16T11:12:13;99881.09;;;2.37;100.00
70027;BME280;57506;50.092;15.804;2023-03-16T11:14:42;99892.34;;;2.40;100.00
70027;BME280;57506;50.092;15.804;2023-03-16T11:17:12;99868.22;;;2.85;100.00
70027;BME280;57506;50.092;15.804;2023-03-16T11:22:14;99882.34;;;2.65;100.00
70027;BME280;57506;50.092;15.804;2023-03-16T11:27:41;99869.19;;;2.84;100.00
70027;BME280;57506;50.092;15.804;2023-03-16T11:30:27;99870.38;;;2.91;100.00
70027;BME280;57506;50.092;15.804;2023-03-16T11:32:55;99865.84;;;3.03;100.00
70027;BME280;57506;50.092;15.804;2023-03-16T11:35:58;99865.31;;;3.30;100.00
70027;BME280;57506;50.092;15.804;2023-03-16T11:38:35;99866.53;;;3.26;100.00
70027;BME280;57506;50.092;15.804;2023-03-16T11:41:10;99863.75;;;3.58;100.00
70027;BME280;57506;50.092;15.804;2023-03-16T11:43:49;99886.88;;;3.47;100.00
70027;BME280;57506;50.092;15.804;2023-03-16T11:46:22;99869.16;;;3.67;100.00
70027;BME280;57506;50.092;15.804;2023-03-16T11:56:37;99853.00;;;3.99;100.00
70027;BME280;57506;50.092;15.804;2023-03-16T12:02:23;99865.47;;;3.89;100.00
70027;BME280;57506;50.092;15.804;2023-03-16T12:05:19;99858.25;;;4.20;98.62
70027;BME280;57506;50.092;15.804;2023-03-16T12:13:01;99849.69;;;4.26;96.15
70027;BME280;57506;50.092;15.804;2023-03-16T12:15:31;99848.03;;;4.44;90.69
70027;BME280;57506;50.092;15.804;2023-03-16T12:18:11;99835.94;;;4.40;88.61
70027;BME280;57506;50.092;15.804;2023-03-16T12:21:03;99849.03;;;4.53;91.06
70027;BME280;57506;50.092;15.804;2023-03-16T12:23:36;99847.19;;;4.44;91.04
70027;BME280;57506;50.092;15.804;2023-03-16T12:26:03;99834.56;;;4.46;89.92
70027;BME280;57506;50.092;15.804;2023-03-16T12:28:30;99841.31;;;4.60;90.92
70027;BME280;57506;50.092;15.804;2023-03-16T12:39:02;99840.72;;;4.46;80.53
70027;BME280;57506;50.092;15.804;2023-03-16T12:49:26;99830.06;;;4.85;83.20
70027;BME280;57506;50.092;15.804;2023-03-16T12:52:00;99830.88;;;5.05;81.30
70027;BME280;57506;50.092;15.804;2023-03-16T12:54:26;99834.53;;;5.04;78.62
70027;BME280;57506;50.092;15.804;2023-03-16T12:56:59;99835.81;;;4.90;78.56
70027;BME280;57506;50.092;15.804;2023-03-16T12:59:38;99828.91;;;5.16;77.74
70027;BME280;57506;50.092;15.804;2023-03-16T13:02:13;99832.66;;;5.23;73.29
70027;BME280;57506;50.092;15.804;2023-03-16T13:04:41;99837.59;;;5.28;77.99
70027;BME280;57506;50.092;15.804;2023-03-16T13:07:16;99825.22;;;5.27;77.53
70027;BME280;57506;50.092;15.804;2023-03-16T13:09:50;99824.56;;;5.52;76.43
70027;BME280;57506;50.092;15.804;2023-03-16T13:12:29;99820.38;;;5.50;80.29
70027;BME280;57506;50.092;15.804;2023-03-16T13:14:56;99815.31;;;5.47;77.26
70027;BME280;57506;50.092;15.804;2023-03-16T13:17:25;99825.31;;;5.45;75.35
70027;BME280;57506;50.092;15.804;2023-03-16T13:20:22;99817.69;;;5.50;72.52
70027;BME280;57506;50.092;15.804;2023-03-16T13:26:00;99818.41;;;5.42;77.27
70027;BME280;57506;50.092;15.804;2023-03-16T13:28:37;99822.56;;;5.54;76.35
70027;BME280;57506;50.092;15.804;2023-03-16T13:31:05;99809.97;;;5.47;73.57
70027;BME280;57506;50.092;15.804;2023-03-16T13:33:45;99822.44;;;5.56;71.56
70027;BME280;57506;50.092;15.804;2023-03-16T13:36:13;99815.75;;;5.70;73.26
70027;BME280;57506;50.092;15.804;2023-03-16T13:38:38;99818.91;;;5.65;70.78
70027;BME280;57506;50.092;15.804;2023-03-16T13:41:09;99831.00;;;5.59;69.51
70027;BME280;57506;50.092;15.804;2023-03-16T13:43:42;99827.22;;;5.62;69.69
70027;BME280;57506;50.092;15.804;2023-03-16T13:46:20;99817.38;;;5.53;70.14
70027;BME280;57506;50.092;15.804;2023-03-16T13:48:47;99822.19;;;5.49;73.02
70027;BME280;57506;50.092;15.804;2023-03-16T13:51:17;99808.28;;;5.46;72.90